Time;durP1;ratioP1;P1;durP2;ratioP2;P2;SDS_P1;SDS_P2;PMS_P1;PMS_P2;Temp;Humidity;BMP_temperature;BMP_pressure;BME280_temperature;BME280_humidity;BME280_pressure;Samples;Min_cycle;Max_cycle;Signal;HPM_P1;HPM_P2
2024/04/04 00:00:24;;;;;;;8.43;4.20;;;19.30;65.70;;;;;;4902353;29;20450;-82
2024/04/04 00:02:54;;;;;;;6.80;4.03;;;19.30;65.70;;;;;;4900800;29;20446;-82
2024/04/04 00:05:20;;;;;;;3.73;3.43;;;19.30;65.50;;;;;;4902826;29;20463;-83
2024/04/04 00:07:47;;;;;;;4.57;3.90;;;19.30;65.60;;;;;;4900791;29;21066;-82
2024/04/04 00:10:14;;;;;;;7.57;4.40;;;19.30;65.60;;;;;;4905892;29;20442;-84
2024/04/04 00:12:50;;;;;;;5.60;4.10;;;19.30;65.40;;;;;;4900303;29;20453;-84
2024/04/04 00:15:24;;;;;;;10.70;3.87;;;19.30;65.60;;;;;;4921421;29;20469;-82
2024/04/04 00:18:04;;;;;;;6.20;4.30;;;19.30;65.30;;;;;;4902466;29;20445;-83
2024/04/04 00:20:37;;;;;;;6.03;3.67;;;19.30;65.50;;;;;;4921899;29;20442;-84
2024/04/04 00:23:05;;;;;;;5.13;3.40;;;19.30;65.40;;;;;;4902817;29;20442;-81
2024/04/04 00:25:31;;;;;;;5.47;3.60;;;19.30;65.50;;;;;;4905471;29;20474;-82
2024/04/04 00:27:59;;;;;;;7.23;4.00;;;19.30;65.10;;;;;;4920580;29;20478;-83
2024/04/04 00:30:25;;;;;;;3.60;3.27;;;19.30;65.30;;;;;;4901250;29;20442;-84
2024/04/04 00:32:54;;;;;;;5.17;3.97;;;19.30;65.40;;;;;;4918122;29;20446;-85
2024/04/04 00:35:22;;;;;;;6.87;3.50;;;19.30;65.50;;;;;;4903379;29;20457;-83
2024/04/04 00:37:50;;;;;;;5.20;4.03;;;19.30;65.40;;;;;;4921708;29;20446;-84
2024/04/04 00:40:20;;;;;;;4.60;3.57;;;19.30;65.30;;;;;;4904529;29;20438;-84
2024/04/04 00:42:50;;;;;;;4.93;3.47;;;19.30;65.40;;;;;;4905699;29;20454;-84
2024/04/04 00:45:16;;;;;;;4.60;3.30;;;19.30;65.40;;;;;;4905181;29;20494;-84
2024/04/04 00:47:45;;;;;;;4.50;3.80;;;19.30;65.40;;;;;;4904521;29;20481;-83
2024/04/04 00:50:11;;;;;;;4.13;3.70;;;19.30;65.30;;;;;;4900295;29;20457;-84
2024/04/04 00:52:40;;;;;;;4.83;3.03;;;19.30;65.20;;;;;;4904957;29;20452;-82
2024/04/04 00:55:06;;;;;;;6.47;3.50;;;19.30;65.30;;;;;;4909815;29;20441;-83
2024/04/04 00:57:39;;;;;;;4.63;3.27;;;19.30;65.10;;;;;;4917887;29;20459;-82
2024/04/04 01:00:07;;;;;;;3.80;3.40;;;19.30;65.30;;;;;;4909373;29;20437;-81
2024/04/04 01:02:39;;;;;;;4.73;3.47;;;19.30;65.20;;;;;;4939961;29;20449;-82
2024/04/04 01:05:19;;;;;;;6.60;3.60;;;19.30;65.20;;;;;;4925557;29;20452;-82
2024/04/04 01:07:57;;;;;;;3.93;3.53;;;19.30;65.20;;;;;;4923599;29;20490;-81
2024/04/04 01:10:24;;;;;;;4.90;3.40;;;19.30;65.20;;;;;;4920399;29;20482;-83
2024/04/04 01:12:52;;;;;;;3.37;3.07;;;19.30;65.30;;;;;;4894541;29;20938;-82
2024/04/04 01:15:18;;;;;;;2.80;2.57;;;19.30;65.30;;;;;;4903102;29;20466;-83
2024/04/04 01:17:46;;;;;;;3.00;2.77;;;19.30;65.10;;;;;;4901110;29;20464;-82
2024/04/04 01:20:12;;;;;;;3.13;2.80;;;19.30;65.10;;;;;;4904735;29;20442;-82
2024/04/04 01:22:39;;;;;;;3.37;2.80;;;19.30;65.20;;;;;;4918521;29;20946;-82
2024/04/04 01:25:07;;;;;;;5.03;3.00;;;19.30;65.00;;;;;;4897744;29;20468;-82
2024/04/04 01:27:34;;;;;;;3.93;3.03;;;19.30;65.00;;;;;;4925587;29;20499;-81
2024/04/04 01:30:00;;;;;;;3.53;2.87;;;19.30;65.10;;;;;;4903300;29;20438;-81
2024/04/04 01:32:33;;;;;;;4.80;3.10;;;19.30;65.20;;;;;;4918250;29;20441;-81
2024/04/04 01:35:53;;;;;;;3.93;2.83;;;19.30;65.10;;;;;;4902227;29;20442;-81
2024/04/04 01:38:56;;;;;;;6.00;2.70;;;19.30;65.10;;;;;;4848814;29;20449;-81
2024/04/04 01:41:24;;;;;;;3.30;3.00;;;19.30;65.00;;;;;;4919466;29;20445;-81
2024/04/04 01:43:52;;;;;;;3.13;2.83;;;19.30;64.90;;;;;;4903245;29;20444;-81
2024/04/04 01:46:18;;;;;;;4.80;3.20;;;19.30;65.20;;;;;;4904054;29;20465;-81
2024/04/04 01:48:45;;;;;;;6.00;3.07;;;19.30;65.00;;;;;;4903128;29;20446;-81
2024/04/04 01:51:52;;;;;;;3.30;3.00;;;19.20;64.90;;;;;;4920459;29;20445;-81
2024/04/04 01:57:50;;;;;;;;;;;;;;;;;;;;;
2024/04/04 02:00:51;;;;;;;2.70;2.30;;;19.20;65.10;;;;;;4916368;29;20441;-82
2024/04/04 02:03:22;;;;;;;3.70;2.60;;;19.30;64.70;;;;;;4936252;29;20453;-81
2024/04/04 02:06:05;;;;;;;2.93;2.63;;;19.20;64.80;;;;;;4917251;29;20470;-82
2024/04/04 02:08:32;;;;;;;3.33;2.63;;;19.30;65.00;;;;;;4903178;29;20477;-82
2024/04/04 02:11:06;;;;;;;3.90;3.10;;;19.20;64.90;;;;;;4903368;29;20450;-82
2024/04/04 02:13:44;;;;;;;6.10;3.03;;;19.20;64.70;;;;;;4911765;29;20448;-82
2024/04/04 02:16:38;;;;;;;3.40;2.60;;;19.20;65.00;;;;;;4918125;29;20486;-82
2024/04/04 02:19:32;;;;;;;5.00;2.40;;;19.20;65.10;;;;;;4919786;29;20441;-82
2024/04/04 02:23:02;;;;;;;3.87;2.40;;;19.20;64.80;;;;;;4902262;29;20454;-81
2024/04/04 02:26:09;;;;;;;4.80;2.73;;;19.20;64.90;;;;;;4826537;29;20504;-81
2024/04/04 02:32:39;;;;;;;3.97;2.70;;;19.20;64.70;;;;;;4808222;29;20457;-81
2024/04/04 02:35:10;;;;;;;6.40;2.67;;;19.20;65.00;;;;;;4793462;29;20446;-81
2024/04/04 02:45:29;;;;;;;3.03;2.60;;;19.10;64.90;;;;;;4903345;29;20424;-81
2024/04/04 02:48:47;;;;;;;3.83;2.50;;;19.10;64.80;;;;;;4897639;29;20488;-81
2024/04/04 02:55:03;;;;;;;4.13;2.70;;;19.10;64.70;;;;;;4883959;29;20444;-81
2024/04/04 02:57:34;;;;;;;5.10;2.60;;;19.10;65.00;;;;;;4881058;29;20536;-80
2024/04/04 03:04:07;;;;;;;3.10;2.43;;;19.10;64.50;;;;;;4904190;29;20451;-80
2024/04/04 03:07:31;;;;;;;5.57;2.30;;;19.10;64.70;;;;;;4901570;29;20482;-82
2024/04/04 03:10:41;;;;;;;7.90;2.80;;;19.10;64.90;;;;;;4907531;29;20449;-81
2024/04/04 03:13:10;;;;;;;5.53;2.60;;;19.10;64.80;;;;;;4913277;29;20465;-82
2024/04/04 03:16:01;;;;;;;6.73;2.53;;;19.10;64.80;;;;;;4901857;29;20474;-81
2024/04/04 03:18:54;;;;;;;2.20;2.00;;;19.00;64.70;;;;;;4900805;29;20450;-82
2024/04/04 03:24:51;;;;;;;4.90;2.20;;;19.00;64.60;;;;;;4898054;29;20474;-83
2024/04/04 03:27:25;;;;;;;3.60;2.43;;;19.00;64.70;;;;;;4902663;29;20486;-82
2024/04/04 03:33:12;;;;;;;3.23;2.50;;;18.90;64.60;;;;;;4890944;29;20458;-81
2024/04/04 03:47:32;;;;;;;3.53;2.37;;;18.80;64.60;;;;;;4788253;29;20485;-82
2024/04/04 03:50:41;;;;;;;9.50;2.10;;;18.80;64.60;;;;;;4805501;29;20451;-81
2024/04/04 03:53:35;;;;;;;3.57;2.10;;;18.80;64.60;;;;;;4775975;30;20459;-81
2024/04/04 03:59:44;;;;;;;3.93;1.93;;;18.80;64.50;;;;;;4862876;29;20454;-82
2024/04/04 04:02:34;;;;;;;4.40;2.50;;;18.70;64.50;;;;;;4854749;29;20450;-82
2024/04/04 04:05:14;;;;;;;5.90;2.47;;;18.70;64.40;;;;;;4850922;29;20454;-81
2024/04/04 04:08:15;;;;;;;7.33;2.43;;;18.70;64.40;;;;;;4855825;29;20475;-81
2024/04/04 04:11:18;;;;;;;4.93;2.20;;;18.70;64.40;;;;;;4875659;29;20454;-82
2024/04/04 04:13:58;;;;;;;2.77;2.13;;;18.70;64.10;;;;;;4866444;29;20451;-81
2024/04/04 04:16:33;;;;;;;3.67;1.90;;;18.60;64.30;;;;;;4857729;29;20475;-81
2024/04/04 04:40:14;;;;;;;4.23;1.97;;;18.50;63.70;;;;;;4819963;29;20437;-81
2024/04/04 04:43:29;;;;;;;;;;;;;;;;;;;;;
2024/04/04 04:46:26;;;;;;;4.10;1.70;;;18.50;63.70;;;;;;4883181;29;20474;-81
2024/04/04 04:49:23;;;;;;;2.13;1.93;;;18.40;63.50;;;;;;4868850;29;20487;-82
2024/04/04 04:55:56;;;;;;;1.97;1.77;;;18.50;63.40;;;;;;4847232;29;20483;-82
2024/04/04 04:58:36;;;;;;;2.30;1.77;;;18.40;63.40;;;;;;4869065;29;20463;-82
2024/04/04 05:01:35;;;;;;;4.33;2.03;;;18.40;63.20;;;;;;4868679;29;20450;-82
2024/04/04 05:04:05;;;;;;;4.00;2.07;;;18.50;63.10;;;;;;4860582;29;20453;-83
2024/04/04 05:06:34;;;;;;;3.57;1.70;;;18.50;63.10;;;;;;4915180;29;20474;-82
2024/04/04 05:09:10;;;;;;;4.00;1.80;;;18.50;63.10;;;;;;4908094;29;20489;-82
2024/04/04 05:11:37;;;;;;;4.33;1.80;;;18.50;62.80;;;;;;4903097;29;20449;-83
2024/04/04 05:14:03;;;;;;;5.40;2.00;;;18.40;63.10;;;;;;4902904;29;20527;-82
2024/04/04 05:16:32;;;;;;;6.00;1.93;;;18.50;63.00;;;;;;4901509;29;20482;-83
2024/04/04 05:18:59;;;;;;;3.00;1.60;;;18.50;63.00;;;;;;4903039;29;20518;-81
2024/04/04 05:21:26;;;;;;;4.27;1.80;;;18.50;62.70;;;;;;4909766;29;20465;-82
2024/04/04 05:23:52;;;;;;;6.23;1.73;;;18.50;63.10;;;;;;4910678;29;20453;-82
2024/04/04 05:26:19;;;;;;;2.80;2.03;;;18.50;62.90;;;;;;4902746;29;20489;-83
2024/04/04 05:28:47;;;;;;;3.57;1.50;;;18.50;62.70;;;;;;4902158;29;20481;-83
2024/04/04 05:31:14;;;;;;;1.60;1.50;;;18.50;62.70;;;;;;4902637;29;20442;-82
2024/04/04 05:33:42;;;;;;;3.13;1.60;;;18.50;63.00;;;;;;4902565;29;20453;-82
2024/04/04 05:36:09;;;;;;;4.67;1.60;;;18.50;62.60;;;;;;4897250;29;20465;-81
2024/04/04 05:38:36;;;;;;;3.47;1.77;;;18.50;62.70;;;;;;4902521;29;20462;-81
2024/04/04 05:41:08;;;;;;;4.30;1.80;;;18.50;62.50;;;;;;4903725;29;20449;-81
2024/04/04 05:43:35;;;;;;;3.43;1.63;;;18.50;62.40;;;;;;4903047;29;20441;-82
2024/04/04 05:46:03;;;;;;;10.13;1.67;;;18.50;62.10;;;;;;4918208;29;20469;-82
2024/04/04 05:48:29;;;;;;;3.50;1.80;;;18.50;62.30;;;;;;4902478;29;20489;-81
2024/04/04 05:51:03;;;;;;;1.80;1.43;;;18.50;62.20;;;;;;4918451;29;20478;-80
2024/04/04 05:53:29;;;;;;;3.77;1.73;;;18.50;62.30;;;;;;4903428;29;20462;-82
2024/04/04 05:55:57;;;;;;;3.57;1.90;;;18.50;61.90;;;;;;4916000;29;20461;-80
2024/04/04 05:58:23;;;;;;;2.70;1.87;;;18.50;61.90;;;;;;4901935;29;20509;-80
2024/04/04 06:00:51;;;;;;;4.07;1.50;;;18.50;62.10;;;;;;4917161;29;20466;-80
2024/04/04 06:03:17;;;;;;;3.33;1.40;;;18.50;61.90;;;;;;4901725;29;20450;-81
2024/04/04 06:05:45;;;;;;;7.33;1.70;;;18.50;61.90;;;;;;4917246;29;20529;-80
2024/04/04 06:08:13;;;;;;;2.70;1.60;;;18.50;61.80;;;;;;4901464;29;20474;-80
2024/04/04 06:10:40;;;;;;;3.50;1.70;;;18.60;61.60;;;;;;4916856;29;20449;-80
2024/04/04 06:13:06;;;;;;;2.33;1.20;;;18.60;61.70;;;;;;4901202;29;20446;-81
2024/04/04 06:15:33;;;;;;;4.93;1.60;;;18.60;61.50;;;;;;4900943;29;20484;-80
2024/04/04 06:17:59;;;;;;;5.67;1.30;;;18.60;61.20;;;;;;4900103;29;20450;-81
2024/04/04 06:20:26;;;;;;;2.33;1.33;;;18.70;61.20;;;;;;4900536;29;20442;-80
2024/04/04 06:22:53;;;;;;;2.13;1.20;;;18.70;61.00;;;;;;4916233;29;20446;-80
2024/04/04 06:25:22;;;;;;;4.40;1.60;;;18.70;60.90;;;;;;4900117;29;20466;-80
2024/04/04 06:27:52;;;;;;;1.70;1.50;;;18.70;61.10;;;;;;4899724;29;20486;-80
2024/04/04 06:30:19;;;;;;;4.90;1.70;;;18.70;60.80;;;;;;4899959;29;20434;-80
2024/04/04 06:32:49;;;;;;;2.50;1.47;;;18.70;60.90;;;;;;4915618;29;20450;-80
2024/04/04 06:35:30;;;;;;;3.47;1.50;;;18.70;60.90;;;;;;4899875;29;20977;-81
2024/04/04 06:37:56;;;;;;;2.13;1.50;;;18.70;60.90;;;;;;4914904;29;20442;-81
2024/04/04 06:40:26;;;;;;;8.40;1.73;;;18.80;61.70;;;;;;4898607;29;20442;-80
2024/04/04 06:42:52;;;;;;;2.67;1.47;;;18.80;60.90;;;;;;4900795;29;20456;-81
2024/04/04 06:45:19;;;;;;;2.50;1.17;;;18.80;60.80;;;;;;4912738;29;20481;-80
2024/04/04 06:47:54;;;;;;;3.17;1.20;;;18.80;60.80;;;;;;4915650;29;20496;-80
2024/04/04 06:50:23;;;;;;;3.47;1.40;;;18.90;60.90;;;;;;4933312;29;20444;-80
2024/04/04 06:52:52;;;;;;;2.97;1.30;;;18.90;60.30;;;;;;4911813;29;20446;-81
2024/04/04 06:55:20;;;;;;;4.30;1.33;;;18.90;60.50;;;;;;4897874;29;20473;-81
2024/04/04 06:57:47;;;;;;;2.87;1.27;;;18.90;60.50;;;;;;4897766;29;20462;-81
2024/04/04 07:00:29;;;;;;;1.50;0.90;;;18.90;60.60;;;;;;4913443;29;20441;-80
2024/04/04 07:02:55;;;;;;;3.13;1.30;;;18.90;60.80;;;;;;4902490;29;20468;-80
2024/04/04 07:05:23;;;;;;;2.37;1.33;;;18.90;60.80;;;;;;4916640;29;20461;-81
2024/04/04 07:07:49;;;;;;;3.80;1.70;;;18.90;60.80;;;;;;4916354;29;20476;-79
2024/04/04 07:10:16;;;;;;;5.13;1.30;;;18.90;60.70;;;;;;4898861;29;20464;-80
2024/04/04 07:12:45;;;;;;;1.90;1.23;;;18.90;60.60;;;;;;4897370;29;20454;-80
2024/04/04 07:15:13;;;;;;;3.43;1.13;;;18.90;60.70;;;;;;4896361;29;20450;-81
2024/04/04 07:17:39;;;;;;;2.90;1.60;;;18.90;60.80;;;;;;4912871;29;20472;-80
2024/04/04 07:20:07;;;;;;;2.00;1.33;;;18.90;60.70;;;;;;4897989;29;20942;-81
2024/04/04 07:22:34;;;;;;;2.03;1.10;;;18.90;60.60;;;;;;4931454;29;20444;-84
2024/04/04 07:25:01;;;;;;;2.13;1.37;;;18.90;60.60;;;;;;4940071;29;20433;-82
2024/04/04 07:27:27;;;;;;;4.60;1.50;;;18.90;60.60;;;;;;4939221;29;20457;-83
2024/04/04 07:29:55;;;;;;;2.90;1.40;;;18.90;60.70;;;;;;4939028;29;20440;-83
2024/04/04 07:32:22;;;;;;;2.20;1.40;;;18.90;60.70;;;;;;4940048;29;20435;-83
2024/04/04 07:34:52;;;;;;;1.90;1.50;;;18.90;60.60;;;;;;4939914;29;20428;-83
2024/04/04 07:37:18;;;;;;;4.20;1.63;;;18.90;60.80;;;;;;4940068;29;20488;-84
2024/04/04 07:39:47;;;;;;;2.53;1.30;;;18.90;60.90;;;;;;4940107;29;20428;-83
2024/04/04 07:42:15;;;;;;;1.50;1.40;;;18.90;60.90;;;;;;4939761;29;20445;-82
2024/04/04 07:44:45;;;;;;;1.30;1.20;;;18.90;61.00;;;;;;4951813;29;20509;-81
2024/04/04 07:47:11;;;;;;;3.17;1.50;;;18.90;61.00;;;;;;4932011;29;20473;-80
2024/04/04 07:49:39;;;;;;;1.50;1.20;;;18.90;61.10;;;;;;4921180;29;20579;-82
2024/04/04 07:52:07;;;;;;;4.03;1.40;;;18.90;61.00;;;;;;4922276;29;20452;-81
2024/04/04 07:54:33;;;;;;;1.40;1.30;;;18.90;61.20;;;;;;4922347;29;20456;-81
2024/04/04 07:57:00;;;;;;;1.40;1.30;;;18.90;61.00;;;;;;4921043;29;20469;-81
2024/04/04 07:59:26;;;;;;;2.30;1.33;;;18.90;61.20;;;;;;4924764;29;20441;-81
2024/04/04 08:01:54;;;;;;;2.03;1.40;;;18.90;61.00;;;;;;4923635;29;20441;-80
2024/04/04 08:04:20;;;;;;;3.20;1.20;;;18.90;61.30;;;;;;4922038;29;20441;-81
2024/04/04 08:06:49;;;;;;;3.03;1.60;;;18.90;61.10;;;;;;4914040;29;20468;-81
2024/04/04 08:09:16;;;;;;;2.50;1.40;;;18.90;61.20;;;;;;4904756;29;20466;-83
2024/04/04 08:11:56;;;;;;;3.83;1.63;;;18.90;61.30;;;;;;4903916;29;20437;-82
2024/04/04 08:14:51;;;;;;;1.47;1.10;;;18.90;61.30;;;;;;4904593;29;20457;-84
2024/04/04 08:17:18;;;;;;;3.00;1.20;;;18.90;61.30;;;;;;4897763;29;20881;-82
2024/04/04 08:19:44;;;;;;;1.57;1.27;;;18.90;61.50;;;;;;4907037;29;20437;-83
2024/04/04 08:22:30;;;;;;;5.87;1.40;;;18.90;61.30;;;;;;4903263;29;20437;-82
2024/04/04 08:28:04;;;;;;;1.77;1.30;;;18.90;61.50;;;;;;4910463;29;20441;-82
2024/04/04 08:30:43;;;;;;;2.33;1.40;;;18.90;61.70;;;;;;4895589;29;20441;-82
2024/04/04 08:33:10;;;;;;;4.87;1.67;;;18.90;61.60;;;;;;4917678;29;20473;-82
2024/04/04 08:35:37;;;;;;;1.73;1.37;;;18.90;61.60;;;;;;4902849;29;20462;-82
2024/04/04 08:39:02;;;;;;;1.50;1.40;;;18.90;61.60;;;;;;4909292;29;20454;-82
2024/04/04 08:41:34;;;;;;;3.13;1.40;;;18.90;61.60;;;;;;4920939;29;20454;-81
2024/04/04 08:44:01;;;;;;;1.60;1.50;;;18.90;61.70;;;;;;4903516;29;20466;-82
2024/04/04 08:46:27;;;;;;;1.70;1.47;;;18.90;61.60;;;;;;4918452;29;20469;-82
2024/04/04 08:48:54;;;;;;;2.40;1.60;;;18.90;61.70;;;;;;4912062;29;20473;-82
2024/04/04 08:51:21;;;;;;;1.83;1.60;;;18.90;61.70;;;;;;4919725;29;20459;-82
2024/04/04 08:53:49;;;;;;;4.63;1.67;;;18.90;61.60;;;;;;4909070;29;20454;-82
2024/04/04 08:56:16;;;;;;;2.27;1.53;;;18.90;61.70;;;;;;4916503;29;20465;-83
2024/04/04 08:58:43;;;;;;;2.70;1.43;;;18.90;61.80;;;;;;4907428;29;20449;-83
2024/04/04 09:01:09;;;;;;;2.73;1.80;;;19.00;62.00;;;;;;4904796;29;20529;-82
2024/04/04 09:03:38;;;;;;;2.90;1.53;;;19.00;61.90;;;;;;4899110;29;20450;-82
2024/04/04 09:06:04;;;;;;;1.93;1.83;;;19.10;62.00;;;;;;4903267;29;20465;-82
2024/04/04 09:08:32;;;;;;;2.50;1.90;;;19.10;61.80;;;;;;4907480;29;20578;-81
2024/04/04 09:11:03;;;;;;;2.50;1.70;;;19.10;61.70;;;;;;4905562;29;20447;-82
2024/04/04 09:13:32;;;;;;;2.07;1.50;;;19.20;61.80;;;;;;4927581;29;20462;-81
2024/04/04 09:15:59;;;;;;;2.57;1.70;;;19.10;61.70;;;;;;4904145;29;20466;-83
2024/04/04 09:18:30;;;;;;;2.03;1.60;;;19.10;61.70;;;;;;4908215;29;20508;-82
2024/04/04 09:21:08;;;;;;;1.60;1.30;;;19.10;61.70;;;;;;4906469;29;20437;-83
2024/04/04 09:23:37;;;;;;;2.20;1.60;;;19.10;61.70;;;;;;4900410;29;20454;-83
2024/04/04 09:26:06;;;;;;;1.50;1.40;;;19.10;61.80;;;;;;4902211;29;20467;-82
2024/04/04 09:28:33;;;;;;;1.60;1.50;;;19.10;62.00;;;;;;4917042;29;20537;-82
2024/04/04 09:31:00;;;;;;;4.07;1.80;;;19.10;62.20;;;;;;4901739;29;20450;-82
2024/04/04 09:33:28;;;;;;;1.53;1.43;;;19.10;62.00;;;;;;4903382;29;20454;-82
2024/04/04 09:35:55;;;;;;;1.50;1.40;;;19.20;62.20;;;;;;4898134;29;20467;-82
2024/04/04 09:38:22;;;;;;;1.67;1.50;;;19.20;62.10;;;;;;4918426;29;20453;-82
2024/04/04 09:40:51;;;;;;;1.53;1.43;;;19.20;62.20;;;;;;4903448;29;20450;-81
2024/04/04 09:43:22;;;;;;;1.83;1.50;;;19.20;62.40;;;;;;4918731;29;20461;-82
2024/04/04 09:45:48;;;;;;;1.80;1.70;;;19.20;62.40;;;;;;4911255;29;20973;-82
2024/04/04 09:48:16;;;;;;;3.40;1.50;;;19.30;62.50;;;;;;4919162;29;20446;-81
2024/04/04 09:50:42;;;;;;;2.10;1.87;;;19.30;62.20;;;;;;4902556;29;20449;-81
2024/04/04 09:53:09;;;;;;;6.77;1.53;;;19.30;62.30;;;;;;4918976;29;20450;-83
2024/04/04 09:55:35;;;;;;;2.30;1.70;;;19.40;62.50;;;;;;4904184;29;20470;-81
2024/04/04 09:58:02;;;;;;;1.50;1.40;;;19.40;62.30;;;;;;4902125;29;20449;-84
2024/04/04 10:00:34;;;;;;;2.73;1.60;;;19.40;62.20;;;;;;4919534;29;20446;-84
2024/04/04 10:03:03;;;;;;;2.33;1.80;;;19.50;62.20;;;;;;4903978;29;20458;-84
2024/04/04 10:05:33;;;;;;;3.33;1.70;;;19.50;62.40;;;;;;4917458;29;20473;-83
2024/04/04 10:08:07;;;;;;;2.20;1.30;;;19.50;62.40;;;;;;4917603;29;20457;-84
2024/04/04 10:10:34;;;;;;;1.50;1.40;;;19.50;62.40;;;;;;4901275;29;20934;-83
2024/04/04 10:13:05;;;;;;;1.90;1.77;;;19.60;63.00;;;;;;4907472;29;20450;-83
2024/04/04 10:15:41;;;;;;;2.03;1.50;;;19.60;62.20;;;;;;4901592;29;20469;-83
2024/04/04 10:18:10;;;;;;;1.73;1.63;;;19.60;62.20;;;;;;4915150;29;20457;-83
2024/04/04 10:20:37;;;;;;;1.20;1.20;;;19.70;62.30;;;;;;4900412;29;20457;-83
2024/04/04 10:23:05;;;;;;;1.83;1.60;;;19.70;62.30;;;;;;4916641;29;20445;-83
2024/04/04 10:25:32;;;;;;;1.97;1.20;;;19.70;62.30;;;;;;4901455;29;20502;-83
2024/04/04 10:28:03;;;;;;;1.80;1.70;;;19.70;62.30;;;;;;4917241;29;20446;-83
2024/04/04 10:30:34;;;;;;;1.93;1.70;;;19.80;62.60;;;;;;4901839;29;20989;-85
2024/04/04 10:33:07;;;;;;;1.60;1.50;;;19.80;62.40;;;;;;4917681;29;20449;-83
2024/04/04 10:35:34;;;;;;;1.97;1.60;;;19.90;62.50;;;;;;4915024;29;20473;-83
2024/04/04 10:38:10;;;;;;;1.47;1.20;;;19.90;62.50;;;;;;4905355;29;20441;-84
2024/04/04 10:40:36;;;;;;;1.63;1.53;;;19.90;62.40;;;;;;4917304;29;20445;-83
2024/04/04 10:43:04;;;;;;;2.50;1.47;;;20.00;62.40;;;;;;4902453;29;20450;-83
2024/04/04 10:45:30;;;;;;;2.27;1.50;;;20.00;62.20;;;;;;4931857;29;20477;-83
2024/04/04 10:47:57;;;;;;;3.33;1.63;;;20.10;62.40;;;;;;4917874;29;20445;-83
2024/04/04 10:50:26;;;;;;;2.07;1.47;;;20.10;62.20;;;;;;4922215;29;20894;-83
2024/04/04 10:52:53;;;;;;;4.00;1.40;;;20.20;62.40;;;;;;4909700;29;20442;-83
2024/04/04 10:55:21;;;;;;;3.57;1.60;;;20.20;62.30;;;;;;4926302;29;20470;-84
2024/04/04 10:57:51;;;;;;;1.63;1.53;;;20.20;62.20;;;;;;4902138;29;20457;-84
2024/04/04 11:00:19;;;;;;;1.97;1.50;;;20.30;62.20;;;;;;4901094;29;20442;-84
2024/04/04 11:02:46;;;;;;;1.67;1.57;;;20.30;62.10;;;;;;4901764;29;20539;-84
2024/04/04 11:05:13;;;;;;;1.73;1.50;;;20.30;62.10;;;;;;4902579;29;20461;-84
2024/04/04 11:07:42;;;;;;;1.67;1.40;;;20.40;62.10;;;;;;4901845;29;20442;-85
2024/04/04 11:10:10;;;;;;;1.60;1.50;;;20.40;62.10;;;;;;4900271;29;20486;-84
2024/04/04 11:12:36;;;;;;;1.50;1.40;;;20.40;62.10;;;;;;4902066;29;20461;-84
2024/04/04 11:15:05;;;;;;;1.70;1.60;;;20.50;62.30;;;;;;4902235;29;20457;-84
2024/04/04 11:17:32;;;;;;;1.83;1.73;;;20.40;62.20;;;;;;4901264;29;20446;-83
2024/04/04 11:20:06;;;;;;;1.80;1.40;;;20.50;62.40;;;;;;4902585;29;20474;-84
2024/04/04 11:22:32;;;;;;;1.40;1.30;;;20.50;62.40;;;;;;4917477;29;20464;-84
2024/04/04 11:25:00;;;;;;;2.80;1.30;;;20.50;62.40;;;;;;4902041;29;20949;-83
2024/04/04 11:27:27;;;;;;;1.83;1.20;;;20.40;62.30;;;;;;4917998;29;20211;-83
2024/04/04 11:29:54;;;;;;;1.60;1.50;;;20.40;62.20;;;;;;4900854;29;20496;-83
2024/04/04 11:32:21;;;;;;;1.40;1.30;;;20.40;62.50;;;;;;4917651;29;20438;-83
2024/04/04 11:34:48;;;;;;;1.30;1.20;;;20.40;62.40;;;;;;4905745;29;20442;-83
2024/04/04 11:37:20;;;;;;;1.40;1.30;;;20.40;62.40;;;;;;4921357;29;20465;-83
2024/04/04 11:39:47;;;;;;;1.73;1.63;;;20.30;62.80;;;;;;4921329;29;20441;-84
2024/04/04 11:42:15;;;;;;;1.60;1.40;;;20.40;62.90;;;;;;4905181;29;20441;-84
2024/04/04 11:44:43;;;;;;;1.30;1.20;;;20.30;62.80;;;;;;4920642;29;20453;-84
2024/04/04 11:47:09;;;;;;;2.80;1.80;;;20.30;62.90;;;;;;4904359;29;20472;-84
2024/04/04 11:49:37;;;;;;;1.30;1.20;;;20.30;63.00;;;;;;4905024;29;20481;-84
2024/04/04 11:52:03;;;;;;;1.20;1.20;;;20.30;63.20;;;;;;4905121;29;20446;-84
2024/04/04 11:54:30;;;;;;;1.50;1.40;;;20.30;63.10;;;;;;4921410;29;20446;-84
2024/04/04 11:56:56;;;;;;;1.60;1.50;;;20.30;63.20;;;;;;4905934;29;20458;-84
2024/04/04 11:59:25;;;;;;;1.70;1.60;;;20.30;63.20;;;;;;4905373;29;20438;-83
2024/04/04 12:01:52;;;;;;;1.50;1.40;;;20.20;63.30;;;;;;4922039;29;20445;-85
2024/04/04 12:04:21;;;;;;;1.20;1.10;;;20.20;63.60;;;;;;4907816;29;20450;-85
2024/04/04 12:06:47;;;;;;;1.50;1.23;;;20.30;63.70;;;;;;4922475;29;20493;-84
2024/04/04 12:09:16;;;;;;;1.40;1.30;;;20.30;63.80;;;;;;4907013;29;20473;-84
2024/04/04 12:11:43;;;;;;;2.70;1.73;;;20.40;63.60;;;;;;4922590;29;20449;-84
2024/04/04 12:14:13;;;;;;;1.80;1.50;;;20.40;63.60;;;;;;4905588;29;20442;-84
2024/04/04 12:16:50;;;;;;;2.67;1.80;;;20.40;63.40;;;;;;4922197;29;20470;-85
2024/04/04 12:19:26;;;;;;;1.57;1.30;;;20.40;63.40;;;;;;4907009;29;20942;-85
2024/04/04 12:21:55;;;;;;;3.63;1.27;;;20.40;63.50;;;;;;4907153;29;20445;-86
2024/04/04 12:24:57;;;;;;;1.10;1.10;;;20.40;63.40;;;;;;4910450;29;20453;-85
2024/04/04 12:27:24;;;;;;;2.47;1.70;;;20.40;63.40;;;;;;4907065;29;20452;-85
2024/04/04 12:29:51;;;;;;;1.43;1.40;;;20.40;63.50;;;;;;4908438;29;20478;-85
2024/04/04 12:32:25;;;;;;;1.10;1.10;;;20.40;63.90;;;;;;4915502;29;20453;-85
2024/04/04 12:34:52;;;;;;;1.67;1.57;;;20.40;63.70;;;;;;4908457;29;20450;-85
2024/04/04 12:37:19;;;;;;;1.73;1.37;;;20.50;63.70;;;;;;4910205;29;20465;-83
2024/04/04 12:39:45;;;;;;;1.60;1.50;;;20.50;63.80;;;;;;4944699;29;20441;-85
2024/04/04 12:42:12;;;;;;;1.07;1.07;;;20.60;63.80;;;;;;4919732;29;20440;-86
2024/04/04 12:44:44;;;;;;;1.33;1.23;;;20.60;63.40;;;;;;4916584;29;20442;-85
2024/04/04 12:47:11;;;;;;;1.63;1.53;;;20.60;63.40;;;;;;4910689;29;20466;-84
2024/04/04 12:49:38;;;;;;;1.77;1.40;;;20.50;63.30;;;;;;4911795;29;20478;-85
2024/04/04 12:52:06;;;;;;;1.40;1.20;;;20.50;63.40;;;;;;4916940;29;20440;-84
2024/04/04 12:54:32;;;;;;;1.80;1.70;;;20.50;63.70;;;;;;4948425;29;20445;-84
2024/04/04 12:56:59;;;;;;;2.40;1.40;;;20.50;63.90;;;;;;4931997;29;20468;-84
2024/04/04 12:59:25;;;;;;;1.20;1.20;;;20.60;63.90;;;;;;4929110;29;20445;-85
2024/04/04 13:01:52;;;;;;;1.40;1.30;;;20.60;63.70;;;;;;4914884;29;20454;-83
2024/04/04 13:04:18;;;;;;;1.50;1.40;;;20.70;63.60;;;;;;4912637;29;20938;-84
2024/04/04 13:06:47;;;;;;;1.57;1.20;;;20.70;63.60;;;;;;4922676;29;20477;-83
2024/04/04 13:09:13;;;;;;;1.37;1.27;;;20.70;63.70;;;;;;4902763;29;20482;-83
2024/04/04 13:11:40;;;;;;;1.53;1.43;;;20.80;63.80;;;;;;4922815;29;20438;-84
2024/04/04 13:14:07;;;;;;;1.33;1.33;;;21.60;65.30;;;;;;4909380;29;20450;-84
2024/04/04 13:16:34;;;;;;;1.37;1.27;;;22.00;65.30;;;;;;4925179;29;20436;-83
2024/04/04 13:19:00;;;;;;;1.50;1.40;;;22.10;60.70;;;;;;4908735;29;20450;-85
2024/04/04 13:21:27;;;;;;;1.53;1.27;;;22.00;60.50;;;;;;4908779;29;20442;-85
2024/04/04 13:23:55;;;;;;;1.57;1.47;;;22.20;61.80;;;;;;4924849;29;20436;-85
2024/04/04 13:26:22;;;;;;;4.03;1.53;;;23.90;64.90;;;;;;4922627;29;20469;-85
2024/04/04 13:28:50;;;;;;;2.83;1.33;;;25.30;58.80;;;;;;4931428;29;20424;-84
2024/04/04 13:31:17;;;;;;;1.83;1.33;;;26.60;55.90;;;;;;4907656;29;20470;-82
2024/04/04 13:33:43;;;;;;;3.80;1.67;;;26.10;53.00;;;;;;4907454;29;20419;-82
2024/04/04 13:36:10;;;;;;;1.57;1.47;;;25.60;53.30;;;;;;4914209;29;20469;-83
2024/04/04 13:38:36;;;;;;;1.60;1.50;;;25.00;54.10;;;;;;4912206;29;20924;-85
2024/04/04 13:41:06;;;;;;;1.73;1.43;;;24.50;54.80;;;;;;4908693;29;20972;-83
2024/04/04 13:43:32;;;;;;;1.60;1.50;;;24.10;55.60;;;;;;4911075;29;20420;-83
2024/04/04 13:45:59;;;;;;;1.53;1.53;;;23.70;56.20;;;;;;4909208;29;21041;-84
2024/04/04 13:48:25;;;;;;;1.33;1.17;;;23.40;56.90;;;;;;4909594;29;20462;-83
2024/04/04 13:50:52;;;;;;;1.30;1.20;;;23.10;57.60;;;;;;4909901;29;20476;-84
2024/04/04 13:53:18;;;;;;;1.60;1.50;;;23.10;58.50;;;;;;4930352;29;20473;-82
2024/04/04 13:55:45;;;;;;;3.27;1.50;;;23.00;58.60;;;;;;4914865;29;20561;-84
2024/04/04 13:58:12;;;;;;;1.30;1.30;;;22.90;58.60;;;;;;4919080;29;20428;-83
2024/04/04 14:00:39;;;;;;;1.30;1.20;;;22.80;58.80;;;;;;4910315;29;20420;-83
2024/04/04 14:03:05;;;;;;;3.90;1.60;;;22.70;59.10;;;;;;4905046;29;20454;-83
2024/04/04 14:05:32;;;;;;;1.23;1.13;;;22.50;59.30;;;;;;4906611;29;20475;-84
2024/04/04 14:07:58;;;;;;;1.50;1.40;;;22.40;59.60;;;;;;4907816;29;20446;-84
2024/04/04 14:10:26;;;;;;;1.60;1.50;;;22.30;60.00;;;;;;4925880;29;20489;-82
2024/04/04 14:12:52;;;;;;;1.93;1.20;;;22.30;60.40;;;;;;4906859;29;20445;-83
2024/04/04 14:15:21;;;;;;;1.80;1.70;;;22.20;60.40;;;;;;4920012;29;20482;-81
2024/04/04 14:17:47;;;;;;;1.43;1.33;;;22.10;60.90;;;;;;4905843;29;20452;-82
2024/04/04 14:20:14;;;;;;;2.00;1.63;;;22.10;61.00;;;;;;4924778;29;20454;-83
2024/04/04 14:22:40;;;;;;;1.50;1.40;;;22.00;61.60;;;;;;4900837;29;20441;-83